sensor_id;sensor_type;location;lat;lon;timestamp;temperature;humidity
19755;DHT22;10036;47.812;9.274;2022-09-29T00:00:55;8.90;99.90
19755;DHT22;10036;47.812;9.274;2022-09-29T00:03:22;8.90;99.90
19755;DHT22;10036;47.812;9.274;2022-09-29T00:05:50;9.00;99.90
19755;DHT22;10036;47.812;9.274;2022-09-29T00:08:18;9.00;99.90
19755;DHT22;10036;47.812;9.274;2022-09-29T00:10:46;9.00;99.90
19755;DHT22;10036;47.812;9.274;2022-09-29T00:13:14;9.00;99.90
19755;DHT22;10036;47.812;9.274;2022-09-29T00:15:42;9.00;99.90
19755;DHT22;10036;47.812;9.274;2022-09-29T00:18:09;9.00;99.90
19755;DHT22;10036;47.812;9.274;2022-09-29T00:20:37;9.00;99.90
19755;DHT22;10036;47.812;9.274;2022-09-29T00:23:04;9.00;99.90
19755;DHT22;10036;47.812;9.274;2022-09-29T00:25:31;9.00;99.90
19755;DHT22;10036;47.812;9.274;2022-09-29T00:27:58;9.00;99.90
19755;DHT22;10036;47.812;9.274;2022-09-29T00:30:25;9.00;99.90
19755;DHT22;10036;47.812;9.274;2022-09-29T00:32:53;9.00;99.90
19755;DHT22;10036;47.812;9.274;2022-09-29T00:35:20;8.90;99.90
19755;DHT22;10036;47.812;9.274;2022-09-29T00:37:47;8.80;99.90
19755;DHT22;10036;47.812;9.274;2022-09-29T00:40:14;8.90;99.90
19755;DHT22;10036;47.812;9.274;2022-09-29T00:42:41;8.80;99.90
19755;DHT22;10036;47.812;9.274;2022-09-29T00:45:20;8.80;99.90
19755;DHT22;10036;47.812;9.274;2022-09-29T00:47:55;8.90;99.90
19755;DHT22;10036;47.812;9.274;2022-09-29T00:50:29;8.80;99.90
19755;DHT22;10036;47.812;9.274;2022-09-29T00:53:00;8.80;99.90
19755;DHT22;10036;47.812;9.274;2022-09-29T00:55:32;8.80;99.90
19755;DHT22;10036;47.812;9.274;2022-09-29T00:58:04;8.70;99.90
19755;DHT22;10036;47.812;9.274;2022-09-29T01:00:32;8.70;99.90
19755;DHT22;10036;47.812;9.274;2022-09-29T01:03:04;8.70;99.90
19755;DHT22;10036;47.812;9.274;2022-09-29T01:05:36;8.70;99.90
19755;DHT22;10036;47.812;9.274;2022-09-29T01:08:10;8.70;99.90
19755;DHT22;10036;47.812;9.274;2022-09-29T01:10:38;8.70;99.90
19755;DHT22;10036;47.812;9.274;2022-09-29T01:13:06;8.70;99.90
19755;DHT22;10036;47.812;9.274;2022-09-29T01:15:33;8.70;99.90
19755;DHT22;10036;47.812;9.274;2022-09-29T01:18:02;8.80;99.90
19755;DHT22;10036;47.812;9.274;2022-09-29T01:20:33;8.80;99.90
19755;DHT22;10036;47.812;9.274;2022-09-29T01:23:19;8.70;99.90
19755;DHT22;10036;47.812;9.274;2022-09-29T01:31:55;8.70;99.90
19755;DHT22;10036;47.812;9.274;2022-09-29T01:34:28;8.70;99.90
19755;DHT22;10036;47.812;9.274;2022-09-29T01:37:04;8.70;99.90
19755;DHT22;10036;47.812;9.274;2022-09-29T01:39:37;8.70;99.90
19755;DHT22;10036;47.812;9.274;2022-09-29T01:42:11;8.70;99.90
19755;DHT22;10036;47.812;9.274;2022-09-29T01:44:42;8.70;99.90
19755;DHT22;10036;47.812;9.274;2022-09-29T01:47:13;8.60;99.90
19755;DHT22;10036;47.812;9.274;2022-09-29T01:49:46;8.60;99.90
19755;DHT22;10036;47.812;9.274;2022-09-29T01:52:16;8.70;99.90
19755;DHT22;10036;47.812;9.274;2022-09-29T01:54:47;8.60;99.90
19755;DHT22;10036;47.812;9.274;2022-09-29T01:57:20;8.60;99.90
19755;DHT22;10036;47.812;9.274;2022-09-29T01:59:53;8.70;99.90
19755;DHT22;10036;47.812;9.274;2022-09-29T02:02:28;8.80;99.90
19755;DHT22;10036;47.812;9.274;2022-09-29T02:05:00;8.80;99.90
19755;DHT22;10036;47.812;9.274;2022-09-29T02:07:32;8.80;99.90
19755;DHT22;10036;47.812;9.274;2022-09-29T02:10:06;8.80;99.90
19755;DHT22;10036;47.812;9.274;2022-09-29T02:12:37;8.80;99.90
19755;DHT22;10036;47.812;9.274;2022-09-29T02:15:09;8.80;99.90
19755;DHT22;10036;47.812;9.274;2022-09-29T02:17:43;8.80;99.90
19755;DHT22;10036;47.812;9.274;2022-09-29T02:20:11;8.70;99.90
19755;DHT22;10036;47.812;9.274;2022-09-29T02:22:39;8.70;99.90
19755;DHT22;10036;47.812;9.274;2022-09-29T02:25:08;8.80;99.90
19755;DHT22;10036;47.812;9.274;2022-09-29T02:27:37;8.70;99.90
19755;DHT22;10036;47.812;9.274;2022-09-29T02:30:05;8.70;99.90
19755;DHT22;10036;47.812;9.274;2022-09-29T02:32:33;8.70;99.90
19755;DHT22;10036;47.812;9.274;2022-09-29T02:35:03;8.80;99.90
19755;DHT22;10036;47.812;9.274;2022-09-29T02:37:40;8.70;99.90
19755;DHT22;10036;47.812;9.274;2022-09-29T02:40:31;8.70;99.90
19755;DHT22;10036;47.812;9.274;2022-09-29T02:43:22;8.60;99.90
19755;DHT22;10036;47.812;9.274;2022-09-29T02:46:01;8.50;99.90
19755;DHT22;10036;47.812;9.274;2022-09-29T02:48:51;8.50;99.90
19755;DHT22;10036;47.812;9.274;2022-09-29T02:51:26;8.50;99.90
19755;DHT22;10036;47.812;9.274;2022-09-29T02:54:10;8.50;99.90
19755;DHT22;10036;47.812;9.274;2022-09-29T02:56:43;8.40;99.90
19755;DHT22;10036;47.812;9.274;2022-09-29T02:59:14;8.30;99.90
19755;DHT22;10036;47.812;9.274;2022-09-29T03:01:48;8.30;99.90
19755;DHT22;10036;47.812;9.274;2022-09-29T03:04:16;8.50;99.90
19755;DHT22;10036;47.812;9.274;2022-09-29T03:06:44;8.40;99.90
19755;DHT22;10036;47.812;9.274;2022-09-29T03:09:11;8.40;99.90
19755;DHT22;10036;47.812;9.274;2022-09-29T03:11:38;8.30;99.90
19755;DHT22;10036;47.812;9.274;2022-09-29T03:14:05;8.40;99.90
19755;DHT22;10036;47.812;9.274;2022-09-29T03:16:32;8.30;99.90
19755;DHT22;10036;47.812;9.274;2022-09-29T03:19:00;8.40;99.90
19755;DHT22;10036;47.812;9.274;2022-09-29T03:21:27;8.40;99.90
19755;DHT22;10036;47.812;9.274;2022-09-29T03:23:55;8.70;99.90
19755;DHT22;10036;47.812;9.274;2022-09-29T03:26:22;8.50;99.90
19755;DHT22;10036;47.812;9.274;2022-09-29T03:28:49;8.50;99.90
19755;DHT22;10036;47.812;9.274;2022-09-29T03:31:16;8.40;99.90
19755;DHT22;10036;47.812;9.274;2022-09-29T03:33:43;8.50;99.90
19755;DHT22;10036;47.812;9.274;2022-09-29T03:36:10;8.50;99.90
19755;DHT22;10036;47.812;9.274;2022-09-29T03:38:37;8.60;99.90
19755;DHT22;10036;47.812;9.274;2022-09-29T03:41:06;8.50;99.90
19755;DHT22;10036;47.812;9.274;2022-09-29T03:43:33;8.40;99.90
19755;DHT22;10036;47.812;9.274;2022-09-29T03:46:00;8.60;99.90
19755;DHT22;10036;47.812;9.274;2022-09-29T03:48:29;8.40;99.90
19755;DHT22;10036;47.812;9.274;2022-09-29T03:50:58;8.40;99.90
19755;DHT22;10036;47.812;9.274;2022-09-29T03:53:25;8.40;99.90
19755;DHT22;10036;47.812;9.274;2022-09-29T03:55:52;8.50;99.90
19755;DHT22;10036;47.812;9.274;2022-09-29T03:58:21;8.50;99.90
19755;DHT22;10036;47.812;9.274;2022-09-29T04:00:48;8.50;99.90
19755;DHT22;10036;47.812;9.274;2022-09-29T04:03:15;8.50;99.90
19755;DHT22;10036;47.812;9.274;2022-09-29T04:05:44;8.50;99.90
19755;DHT22;10036;47.812;9.274;2022-09-29T04:08:11;8.50;99.90
19755;DHT22;10036;47.812;9.274;2022-09-29T04:10:38;8.40;99.90
19755;DHT22;10036;47.812;9.274;2022-09-29T04:13:06;8.40;99.90
19755;DHT22;10036;47.812;9.274;2022-09-29T04:15:35;8.50;99.90
19755;DHT22;10036;47.812;9.274;2022-09-29T04:18:02;8.40;99.90
19755;DHT22;10036;47.812;9.274;2022-09-29T04:20:30;8.40;99.90
19755;DHT22;10036;47.812;9.274;2022-09-29T04:22:57;8.30;99.90
19755;DHT22;10036;47.812;9.274;2022-09-29T04:25:25;8.50;99.90
19755;DHT22;10036;47.812;9.274;2022-09-29T04:27:52;8.50;99.90
19755;DHT22;10036;47.812;9.274;2022-09-29T04:30:19;8.50;99.90
19755;DHT22;10036;47.812;9.274;2022-09-29T04:32:47;8.50;99.90
19755;DHT22;10036;47.812;9.274;2022-09-29T04:35:14;8.50;99.90
19755;DHT22;10036;47.812;9.274;2022-09-29T04:37:41;8.50;99.90
19755;DHT22;10036;47.812;9.274;2022-09-29T04:40:09;8.50;99.90
19755;DHT22;10036;47.812;9.274;2022-09-29T04:42:36;8.50;99.90
19755;DHT22;10036;47.812;9.274;2022-09-29T04:45:04;8.40;99.90
19755;DHT22;10036;47.812;9.274;2022-09-29T04:47:31;8.40;99.90
19755;DHT22;10036;47.812;9.274;2022-09-29T04:49:59;8.30;99.90
19755;DHT22;10036;47.812;9.274;2022-09-29T04:52:26;8.30;99.90
19755;DHT22;10036;47.812;9.274;2022-09-29T04:54:53;8.30;99.90
19755;DHT22;10036;47.812;9.274;2022-09-29T04:57:20;8.30;99.90
19755;DHT22;10036;47.812;9.274;2022-09-29T04:59:47;8.30;99.90
19755;DHT22;10036;47.812;9.274;2022-09-29T05:02:16;8.30;99.90
19755;DHT22;10036;47.812;9.274;2022-09-29T05:04:43;8.30;99.90
19755;DHT22;10036;47.812;9.274;2022-09-29T05:07:14;8.30;99.90
19755;DHT22;10036;47.812;9.274;2022-09-29T05:09:41;8.30;99.90
19755;DHT22;10036;47.812;9.274;2022-09-29T05:12:08;8.50;99.90
19755;DHT22;10036;47.812;9.274;2022-09-29T05:14:34;8.40;99.90
19755;DHT22;10036;47.812;9.274;2022-09-29T05:17:01;8.40;99.90
19755;DHT22;10036;47.812;9.274;2022-09-29T05:19:28;8.40;99.90
19755;DHT22;10036;47.812;9.274;2022-09-29T05:21:56;8.40;99.90
19755;DHT22;10036;47.812;9.274;2022-09-29T05:24:25;8.40;99.90
19755;DHT22;10036;47.812;9.274;2022-09-29T05:26:53;8.50;99.90
19755;DHT22;10036;47.812;9.274;2022-09-29T05:29:20;8.50;99.90
19755;DHT22;10036;47.812;9.274;2022-09-29T05:31:47;8.50;99.90
19755;DHT22;10036;47.812;9.274;2022-09-29T05:34:15;8.60;99.90
19755;DHT22;10036;47.812;9.274;2022-09-29T05:36:42;8.60;99.90
19755;DHT22;10036;47.812;9.274;2022-09-29T05:39:09;8.60;99.90
19755;DHT22;10036;47.812;9.274;2022-09-29T05:41:37;8.60;99.90
19755;DHT22;10036;47.812;9.274;2022-09-29T05:44:04;8.50;99.90
19755;DHT22;10036;47.812;9.274;2022-09-29T05:46:31;8.50;99.90
19755;DHT22;10036;47.812;9.274;2022-09-29T05:48:58;8.50;99.90
19755;DHT22;10036;47.812;9.274;2022-09-29T05:51:25;8.40;99.90
19755;DHT22;10036;47.812;9.274;2022-09-29T05:53:53;8.40;99.90
19755;DHT22;10036;47.812;9.274;2022-09-29T05:56:22;8.40;99.90
19755;DHT22;10036;47.812;9.274;2022-09-29T05:58:51;8.50;99.90
19755;DHT22;10036;47.812;9.274;2022-09-29T06:01:19;8.50;99.90
19755;DHT22;10036;47.812;9.274;2022-09-29T06:03:47;8.70;99.90
19755;DHT22;10036;47.812;9.274;2022-09-29T06:06:17;8.70;99.90
19755;DHT22;10036;47.812;9.274;2022-09-29T06:08:45;8.70;99.90
19755;DHT22;10036;47.812;9.274;2022-09-29T06:11:14;8.70;99.90
19755;DHT22;10036;47.812;9.274;2022-09-29T06:13:42;8.70;99.90
19755;DHT22;10036;47.812;9.274;2022-09-29T06:16:11;8.60;99.90
19755;DHT22;10036;47.812;9.274;2022-09-29T06:18:39;8.70;99.90
19755;DHT22;10036;47.812;9.274;2022-09-29T06:21:08;8.60;99.90
19755;DHT22;10036;47.812;9.274;2022-09-29T06:23:35;8.70;99.90
19755;DHT22;10036;47.812;9.274;2022-09-29T06:26:04;8.70;99.90
19755;DHT22;10036;47.812;9.274;2022-09-29T06:28:32;8.70;99.90
19755;DHT22;10036;47.812;9.274;2022-09-29T06:31:00;8.70;99.90
19755;DHT22;10036;47.812;9.274;2022-09-29T06:33:30;8.70;99.90
19755;DHT22;10036;47.812;9.274;2022-09-29T06:35:58;8.70;99.90
19755;DHT22;10036;47.812;9.274;2022-09-29T06:38:43;8.60;99.90
19755;DHT22;10036;47.812;9.274;2022-09-29T06:41:10;8.70;99.90
19755;DHT22;10036;47.812;9.274;2022-09-29T06:43:37;8.70;99.90
19755;DHT22;10036;47.812;9.274;2022-09-29T06:46:04;8.80;99.90
19755;DHT22;10036;47.812;9.274;2022-09-29T06:48:32;8.80;99.90
19755;DHT22;10036;47.812;9.274;2022-09-29T06:50:59;8.80;99.90
19755;DHT22;10036;47.812;9.274;2022-09-29T06:53:26;8.90;99.90
19755;DHT22;10036;47.812;9.274;2022-09-29T06:55:53;8.90;99.90
19755;DHT22;10036;47.812;9.274;2022-09-29T06:58:21;8.90;99.90
19755;DHT22;10036;47.812;9.274;2022-09-29T07:00:48;8.90;99.90
19755;DHT22;10036;47.812;9.274;2022-09-29T07:03:15;8.90;99.90
19755;DHT22;10036;47.812;9.274;2022-09-29T07:05:43;9.10;99.90
19755;DHT22;10036;47.812;9.274;2022-09-29T07:08:10;9.10;99.90
19755;DHT22;10036;47.812;9.274;2022-09-29T07:10:37;9.10;99.90
19755;DHT22;10036;47.812;9.274;2022-09-29T07:13:04;9.10;99.90
19755;DHT22;10036;47.812;9.274;2022-09-29T07:15:32;9.20;99.90
19755;DHT22;10036;47.812;9.274;2022-09-29T07:18:01;9.10;99.90
19755;DHT22;10036;47.812;9.274;2022-09-29T07:20:28;9.20;99.90
19755;DHT22;10036;47.812;9.274;2022-09-29T07:22:57;9.20;99.90
19755;DHT22;10036;47.812;9.274;2022-09-29T07:25:24;9.30;99.90
19755;DHT22;10036;47.812;9.274;2022-09-29T07:27:51;9.30;99.90
19755;DHT22;10036;47.812;9.274;2022-09-29T07:30:18;9.30;99.90
19755;DHT22;10036;47.812;9.274;2022-09-29T07:32:45;9.40;99.90
19755;DHT22;10036;47.812;9.274;2022-09-29T07:35:12;9.40;99.90
19755;DHT22;10036;47.812;9.274;2022-09-29T07:37:39;9.50;99.90
19755;DHT22;10036;47.812;9.274;2022-09-29T07:40:08;9.50;99.90
19755;DHT22;10036;47.812;9.274;2022-09-29T07:42:35;9.70;99.90
19755;DHT22;10036;47.812;9.274;2022-09-29T07:45:02;9.60;99.90
19755;DHT22;10036;47.812;9.274;2022-09-29T07:47:29;9.80;99.90
19755;DHT22;10036;47.812;9.274;2022-09-29T07:49:56;9.90;99.90
19755;DHT22;10036;47.812;9.274;2022-09-29T07:52:23;10.00;99.90
19755;DHT22;10036;47.812;9.274;2022-09-29T07:54:50;10.10;99.90
19755;DHT22;10036;47.812;9.274;2022-09-29T07:57:18;10.20;99.90
19755;DHT22;10036;47.812;9.274;2022-09-29T07:59:45;10.30;99.90
19755;DHT22;10036;47.812;9.274;2022-09-29T08:02:12;10.30;99.90
19755;DHT22;10036;47.812;9.274;2022-09-29T08:04:39;10.30;99.90
19755;DHT22;10036;47.812;9.274;2022-09-29T08:07:08;10.40;99.90
19755;DHT22;10036;47.812;9.274;2022-09-29T08:09:35;10.50;99.90
19755;DHT22;10036;47.812;9.274;2022-09-29T08:12:02;10.60;99.90
19755;DHT22;10036;47.812;9.274;2022-09-29T08:14:30;10.70;99.90
19755;DHT22;10036;47.812;9.274;2022-09-29T08:16:57;10.50;99.90
19755;DHT22;10036;47.812;9.274;2022-09-29T08:19:24;10.50;99.90
19755;DHT22;10036;47.812;9.274;2022-09-29T08:21:52;10.60;99.90
19755;DHT22;10036;47.812;9.274;2022-09-29T08:24:19;10.60;99.90
19755;DHT22;10036;47.812;9.274;2022-09-29T08:26:46;10.50;99.90
19755;DHT22;10036;47.812;9.274;2022-09-29T08:29:13;10.50;99.90
19755;DHT22;10036;47.812;9.274;2022-09-29T08:31:41;10.50;99.90
19755;DHT22;10036;47.812;9.274;2022-09-29T08:34:08;10.60;99.90
19755;DHT22;10036;47.812;9.274;2022-09-29T08:36:35;10.60;99.90
19755;DHT22;10036;47.812;9.274;2022-09-29T08:39:03;10.60;99.90
19755;DHT22;10036;47.812;9.274;2022-09-29T08:41:37;10.60;99.90
19755;DHT22;10036;47.812;9.274;2022-09-29T08:44:13;10.50;99.90
19755;DHT22;10036;47.812;9.274;2022-09-29T08:46:46;10.70;99.90
19755;DHT22;10036;47.812;9.274;2022-09-29T08:49:19;10.60;99.90
19755;DHT22;10036;47.812;9.274;2022-09-29T08:51:49;10.70;99.90
19755;DHT22;10036;47.812;9.274;2022-09-29T08:54:24;10.90;99.90
19755;DHT22;10036;47.812;9.274;2022-09-29T08:56:53;11.00;99.90
19755;DHT22;10036;47.812;9.274;2022-09-29T08:59:20;11.00;99.90
19755;DHT22;10036;47.812;9.274;2022-09-29T09:02:07;10.90;99.90
19755;DHT22;10036;47.812;9.274;2022-09-29T09:04:50;10.90;99.90
19755;DHT22;10036;47.812;9.274;2022-09-29T09:07:27;11.00;99.90
19755;DHT22;10036;47.812;9.274;2022-09-29T09:10:07;11.00;99.90
19755;DHT22;10036;47.812;9.274;2022-09-29T09:13:08;11.00;99.90
19755;DHT22;10036;47.812;9.274;2022-09-29T09:15:53;11.00;99.90
19755;DHT22;10036;47.812;9.274;2022-09-29T09:21:25;11.00;99.90
19755;DHT22;10036;47.812;9.274;2022-09-29T09:23:55;11.10;99.90
19755;DHT22;10036;47.812;9.274;2022-09-29T09:26:29;11.10;99.90
19755;DHT22;10036;47.812;9.274;2022-09-29T09:29:02;11.10;99.90
19755;DHT22;10036;47.812;9.274;2022-09-29T09:31:34;11.20;99.90
19755;DHT22;10036;47.812;9.274;2022-09-29T09:34:11;11.10;99.90
19755;DHT22;10036;47.812;9.274;2022-09-29T09:36:43;11.10;99.90
19755;DHT22;10036;47.812;9.274;2022-09-29T09:39:14;11.10;99.90
19755;DHT22;10036;47.812;9.274;2022-09-29T09:41:44;11.30;99.90
19755;DHT22;10036;47.812;9.274;2022-09-29T09:44:14;11.60;99.90
19755;DHT22;10036;47.812;9.274;2022-09-29T09:46:44;11.60;99.90
19755;DHT22;10036;47.812;9.274;2022-09-29T09:49:19;11.70;99.90
19755;DHT22;10036;47.812;9.274;2022-09-29T09:51:53;11.70;99.90
19755;DHT22;10036;47.812;9.274;2022-09-29T09:54:27;11.70;99.90
19755;DHT22;10036;47.812;9.274;2022-09-29T09:57:21;11.70;99.90
19755;DHT22;10036;47.812;9.274;2022-09-29T10:00:03;11.80;99.90
19755;DHT22;10036;47.812;9.274;2022-09-29T10:02:31;11.90;99.90
19755;DHT22;10036;47.812;9.274;2022-09-29T10:04:59;11.90;99.90
19755;DHT22;10036;47.812;9.274;2022-09-29T10:07:28;11.80;99.90
19755;DHT22;10036;47.812;9.274;2022-09-29T10:09:57;11.90;99.90
19755;DHT22;10036;47.812;9.274;2022-09-29T10:12:27;11.90;99.90
19755;DHT22;10036;47.812;9.274;2022-09-29T10:15:00;12.00;99.90
19755;DHT22;10036;47.812;9.274;2022-09-29T10:17:32;12.00;99.90
19755;DHT22;10036;47.812;9.274;2022-09-29T10:20:05;11.90;99.90
19755;DHT22;10036;47.812;9.274;2022-09-29T10:22:34;12.00;99.90
19755;DHT22;10036;47.812;9.274;2022-09-29T10:25:14;12.00;99.90
19755;DHT22;10036;47.812;9.274;2022-09-29T10:27:45;12.00;99.90
19755;DHT22;10036;47.812;9.274;2022-09-29T10:30:19;12.10;99.90
19755;DHT22;10036;47.812;9.274;2022-09-29T10:32:48;12.10;99.90
19755;DHT22;10036;47.812;9.274;2022-09-29T10:35:22;12.20;99.90
19755;DHT22;10036;47.812;9.274;2022-09-29T10:37:59;12.30;99.90
19755;DHT22;10036;47.812;9.274;2022-09-29T10:40:27;12.30;99.90
19755;DHT22;10036;47.812;9.274;2022-09-29T10:42:56;12.20;99.90
19755;DHT22;10036;47.812;9.274;2022-09-29T10:45:24;12.30;99.90
19755;DHT22;10036;47.812;9.274;2022-09-29T10:48:07;12.50;99.90
19755;DHT22;10036;47.812;9.274;2022-09-29T10:50:46;12.60;99.90
19755;DHT22;10036;47.812;9.274;2022-09-29T10:53:21;12.70;99.90
19755;DHT22;10036;47.812;9.274;2022-09-29T10:55:52;12.60;99.90
19755;DHT22;10036;47.812;9.274;2022-09-29T10:58:24;12.50;99.90
19755;DHT22;10036;47.812;9.274;2022-09-29T11:01:03;12.40;99.90
19755;DHT22;10036;47.812;9.274;2022-09-29T11:03:34;12.40;99.90
19755;DHT22;10036;47.812;9.274;2022-09-29T11:06:07;12.50;99.90
19755;DHT22;10036;47.812;9.274;2022-09-29T11:08:57;12.50;99.90
19755;DHT22;10036;47.812;9.274;2022-09-29T11:11:27;12.40;99.90
19755;DHT22;10036;47.812;9.274;2022-09-29T11:13:55;12.50;99.90
19755;DHT22;10036;47.812;9.274;2022-09-29T11:16:27;12.50;99.90
19755;DHT22;10036;47.812;9.274;2022-09-29T11:18:58;12.50;99.90
19755;DHT22;10036;47.812;9.274;2022-09-29T11:25:01;12.60;99.90
19755;DHT22;10036;47.812;9.274;2022-09-29T11:27:42;12.60;99.90
19755;DHT22;10036;47.812;9.274;2022-09-29T11:30:15;12.70;99.90
19755;DHT22;10036;47.812;9.274;2022-09-29T11:33:00;12.80;99.90
19755;DHT22;10036;47.812;9.274;2022-09-29T11:35:37;12.90;99.90
19755;DHT22;10036;47.812;9.274;2022-09-29T11:38:18;12.90;99.90
19755;DHT22;10036;47.812;9.274;2022-09-29T11:41:04;13.00;99.90
19755;DHT22;10036;47.812;9.274;2022-09-29T11:43:42;12.80;99.90
19755;DHT22;10036;47.812;9.274;2022-09-29T11:46:26;12.90;99.90
19755;DHT22;10036;47.812;9.274;2022-09-29T11:49:18;12.80;99.90
19755;DHT22;10036;47.812;9.274;2022-09-29T11:52:02;12.80;99.90
19755;DHT22;10036;47.812;9.274;2022-09-29T11:54:47;13.00;99.90
19755;DHT22;10036;47.812;9.274;2022-09-29T11:57:21;13.10;99.90
19755;DHT22;10036;47.812;9.274;2022-09-29T12:00:02;12.90;99.90
19755;DHT22;10036;47.812;9.274;2022-09-29T12:02:58;12.90;99.90
19755;DHT22;10036;47.812;9.274;2022-09-29T12:05:39;12.80;99.90
19755;DHT22;10036;47.812;9.274;2022-09-29T12:08:14;12.80;99.90
19755;DHT22;10036;47.812;9.274;2022-09-29T12:10:53;12.70;99.90
19755;DHT22;10036;47.812;9.274;2022-09-29T12:13:28;12.80;99.90
19755;DHT22;10036;47.812;9.274;2022-09-29T12:15:58;13.20;99.90
19755;DHT22;10036;47.812;9.274;2022-09-29T12:18:34;13.20;99.90
19755;DHT22;10036;47.812;9.274;2022-09-29T12:21:06;13.20;99.90
19755;DHT22;10036;47.812;9.274;2022-09-29T12:23:34;13.30;99.90
19755;DHT22;10036;47.812;9.274;2022-09-29T12:26:07;13.30;99.90
19755;DHT22;10036;47.812;9.274;2022-09-29T12:28:40;13.30;99.90
19755;DHT22;10036;47.812;9.274;2022-09-29T12:31:11;13.30;99.90
19755;DHT22;10036;47.812;9.274;2022-09-29T12:33:44;13.10;99.90
19755;DHT22;10036;47.812;9.274;2022-09-29T12:36:25;13.10;99.90
19755;DHT22;10036;47.812;9.274;2022-09-29T12:39:31;12.90;99.90
19755;DHT22;10036;47.812;9.274;2022-09-29T12:42:13;13.00;99.90
19755;DHT22;10036;47.812;9.274;2022-09-29T12:44:45;12.80;99.90
19755;DHT22;10036;47.812;9.274;2022-09-29T12:47:20;12.80;99.90
19755;DHT22;10036;47.812;9.274;2022-09-29T12:49:57;12.90;99.90
19755;DHT22;10036;47.812;9.274;2022-09-29T12:52:32;12.80;99.90
19755;DHT22;10036;47.812;9.274;2022-09-29T12:55:05;12.70;99.90
19755;DHT22;10036;47.812;9.274;2022-09-29T12:57:40;12.60;99.90
19755;DHT22;10036;47.812;9.274;2022-09-29T13:00:12;12.60;99.90
19755;DHT22;10036;47.812;9.274;2022-09-29T13:03:05;12.50;99.90
19755;DHT22;10036;47.812;9.274;2022-09-29T13:06:01;12.50;99.90
19755;DHT22;10036;47.812;9.274;2022-09-29T13:08:42;12.40;99.90
19755;DHT22;10036;47.812;9.274;2022-09-29T13:14:36;12.50;99.90
19755;DHT22;10036;47.812;9.274;2022-09-29T13:17:16;12.60;99.90
19755;DHT22;10036;47.812;9.274;2022-09-29T13:20:10;12.70;99.90
19755;DHT22;10036;47.812;9.274;2022-09-29T13:23:23;12.90;99.90
19755;DHT22;10036;47.812;9.274;2022-09-29T13:26:14;12.90;99.90
19755;DHT22;10036;47.812;9.274;2022-09-29T13:28:45;13.00;99.90
19755;DHT22;10036;47.812;9.274;2022-09-29T13:31:18;12.90;99.90
19755;DHT22;10036;47.812;9.274;2022-09-29T13:33:47;12.80;99.90
19755;DHT22;10036;47.812;9.274;2022-09-29T13:36:24;12.80;99.90
19755;DHT22;10036;47.812;9.274;2022-09-29T13:38:54;12.70;99.90
19755;DHT22;10036;47.812;9.274;2022-09-29T13:41:34;12.60;99.90
19755;DHT22;10036;47.812;9.274;2022-09-29T13:44:20;12.50;99.90
19755;DHT22;10036;47.812;9.274;2022-09-29T13:46:50;12.50;99.90
19755;DHT22;10036;47.812;9.274;2022-09-29T13:49:26;12.50;99.90
19755;DHT22;10036;47.812;9.274;2022-09-29T13:51:54;12.50;99.90
19755;DHT22;10036;47.812;9.274;2022-09-29T13:54:30;12.50;99.90
19755;DHT22;10036;47.812;9.274;2022-09-29T14:00:22;12.30;99.90
19755;DHT22;10036;47.812;9.274;2022-09-29T14:03:04;12.30;99.90
19755;DHT22;10036;47.812;9.274;2022-09-29T14:08:27;12.20;99.90
19755;DHT22;10036;47.812;9.274;2022-09-29T14:11:03;12.30;99.90
19755;DHT22;10036;47.812;9.274;2022-09-29T14:13:40;12.20;99.90
19755;DHT22;10036;47.812;9.274;2022-09-29T14:19:21;12.20;99.90
19755;DHT22;10036;47.812;9.274;2022-09-29T14:21:53;12.30;99.90
19755;DHT22;10036;47.812;9.274;2022-09-29T14:24:42;12.30;99.90
19755;DHT22;10036;47.812;9.274;2022-09-29T14:27:30;12.40;99.90
19755;DHT22;10036;47.812;9.274;2022-09-29T14:30:09;12.40;99.90
19755;DHT22;10036;47.812;9.274;2022-09-29T14:32:40;12.40;99.90
19755;DHT22;10036;47.812;9.274;2022-09-29T14:35:16;12.40;99.90
19755;DHT22;10036;47.812;9.274;2022-09-29T14:37:44;12.40;99.90
19755;DHT22;10036;47.812;9.274;2022-09-29T14:40:16;12.30;99.90
19755;DHT22;10036;47.812;9.274;2022-09-29T14:43:11;12.30;99.90
19755;DHT22;10036;47.812;9.274;2022-09-29T14:45:52;12.20;99.90
19755;DHT22;10036;47.812;9.274;2022-09-29T14:48:48;12.20;99.90
19755;DHT22;10036;47.812;9.274;2022-09-29T14:51:41;12.20;99.90
19755;DHT22;10036;47.812;9.274;2022-09-29T14:54:33;12.20;99.90
19755;DHT22;10036;47.812;9.274;2022-09-29T14:57:19;12.10;99.90
19755;DHT22;10036;47.812;9.274;2022-09-29T15:00:00;12.00;99.90
19755;DHT22;10036;47.812;9.274;2022-09-29T15:02:29;12.00;99.90
19755;DHT22;10036;47.812;9.274;2022-09-29T15:04:56;12.00;99.90
19755;DHT22;10036;47.812;9.274;2022-09-29T15:07:26;11.90;99.90
19755;DHT22;10036;47.812;9.274;2022-09-29T15:09:54;11.90;99.90
19755;DHT22;10036;47.812;9.274;2022-09-29T15:12:24;11.90;99.90
19755;DHT22;10036;47.812;9.274;2022-09-29T15:14:52;11.90;99.90
19755;DHT22;10036;47.812;9.274;2022-09-29T15:17:30;11.90;99.90
19755;DHT22;10036;47.812;9.274;2022-09-29T15:20:07;11.80;99.90
19755;DHT22;10036;47.812;9.274;2022-09-29T15:22:58;11.80;99.90
19755;DHT22;10036;47.812;9.274;2022-09-29T15:25:28;11.80;99.90
19755;DHT22;10036;47.812;9.274;2022-09-29T15:27:59;11.70;99.90
19755;DHT22;10036;47.812;9.274;2022-09-29T15:30:28;11.70;99.90
19755;DHT22;10036;47.812;9.274;2022-09-29T15:33:08;11.70;99.90
19755;DHT22;10036;47.812;9.274;2022-09-29T15:35:41;11.70;99.90
19755;DHT22;10036;47.812;9.274;2022-09-29T15:38:30;11.70;99.90
19755;DHT22;10036;47.812;9.274;2022-09-29T15:41:01;11.70;99.90
19755;DHT22;10036;47.812;9.274;2022-09-29T15:43:34;11.70;99.90
19755;DHT22;10036;47.812;9.274;2022-09-29T15:46:14;11.70;99.90
19755;DHT22;10036;47.812;9.274;2022-09-29T15:51:28;11.90;99.90
19755;DHT22;10036;47.812;9.274;2022-09-29T15:53:56;11.90;99.90
19755;DHT22;10036;47.812;9.274;2022-09-29T15:56:25;11.90;99.90
19755;DHT22;10036;47.812;9.274;2022-09-29T15:58:52;11.90;99.90
19755;DHT22;10036;47.812;9.274;2022-09-29T16:01:19;11.90;99.90
19755;DHT22;10036;47.812;9.274;2022-09-29T16:03:49;11.90;99.90
19755;DHT22;10036;47.812;9.274;2022-09-29T16:06:26;11.90;99.90
19755;DHT22;10036;47.812;9.274;2022-09-29T16:08:57;11.80;99.90
19755;DHT22;10036;47.812;9.274;2022-09-29T16:11:29;11.70;99.90
19755;DHT22;10036;47.812;9.274;2022-09-29T16:13:59;11.60;99.90
19755;DHT22;10036;47.812;9.274;2022-09-29T16:16:33;11.60;99.90
19755;DHT22;10036;47.812;9.274;2022-09-29T16:19:06;11.60;99.90
19755;DHT22;10036;47.812;9.274;2022-09-29T16:21:36;11.60;99.90
19755;DHT22;10036;47.812;9.274;2022-09-29T16:24:11;11.50;99.90
19755;DHT22;10036;47.812;9.274;2022-09-29T16:26:41;11.60;99.90
19755;DHT22;10036;47.812;9.274;2022-09-29T16:29:27;11.50;99.90
19755;DHT22;10036;47.812;9.274;2022-09-29T16:31:55;11.60;99.90
19755;DHT22;10036;47.812;9.274;2022-09-29T16:34:29;11.50;99.90
19755;DHT22;10036;47.812;9.274;2022-09-29T16:36:58;11.40;99.90